createdAt,value
2019-01-29T00:35:32.000Z,99200
2019-01-29T00:37:02.000Z,99200
2019-01-29T00:38:18.000Z,99204
2019-01-29T00:40:18.000Z,99202
2019-01-29T00:42:18.000Z,99203
2019-01-29T00:43:18.000Z,99205
2019-01-29T00:45:18.000Z,99203
2019-01-29T00:47:18.000Z,99203
2019-01-29T00:49:18.000Z,99208
2019-01-29T00:51:18.000Z,99205
2019-01-29T00:53:18.000Z,99207
2019-01-29T00:55:18.000Z,99211
2019-01-29T00:57:02.000Z,99212
2019-01-29T00:58:18.000Z,99213
2019-01-29T00:59:18.000Z,99212
2019-01-29T01:01:18.000Z,99218
2019-01-29T01:03:18.000Z,99214
2019-01-29T01:05:18.000Z,99223
2019-01-29T01:06:18.000Z,99219
2019-01-29T01:08:18.000Z,99220
2019-01-29T01:09:18.000Z,99225
2019-01-29T01:11:02.000Z,99221
2019-01-29T01:12:18.000Z,99228
2019-01-29T01:13:18.000Z,99223
2019-01-29T01:15:18.000Z,99226
2019-01-29T01:17:02.000Z,99227
2019-01-29T01:18:17.000Z,99228
2019-01-29T01:19:17.000Z,99230
2019-01-29T01:20:17.000Z,99229
2019-01-29T01:21:17.000Z,99238
2019-01-29T01:22:47.000Z,99237
2019-01-29T02:05:54.000Z,99268
2019-01-29T02:07:25.000Z,99270
2019-01-29T02:08:25.000Z,99267
2019-01-29T02:10:10.000Z,99274
2019-01-29T02:12:25.000Z,99275
2019-01-29T02:14:25.000Z,99277
2019-01-29T02:16:25.000Z,99285
2019-01-29T02:17:25.000Z,99283
2019-01-29T02:18:25.000Z,99286
2019-01-29T02:20:25.000Z,99289
2019-01-29T02:21:25.000Z,99288
2019-01-29T02:23:25.000Z,99294
2019-01-29T02:25:10.000Z,99305
2019-01-29T02:27:25.000Z,99301
2019-01-29T02:29:25.000Z,99297
2019-01-29T02:30:25.000Z,99301
2019-01-29T02:31:25.000Z,99298
2019-01-29T02:33:25.000Z,99306
2019-01-29T02:35:25.000Z,99300
2019-01-29T02:37:25.000Z,99297
2019-01-29T02:39:25.000Z,99301
2019-01-29T02:40:25.000Z,99302
2019-01-29T02:41:25.000Z,99304
2019-01-29T02:43:25.000Z,99302
2019-01-29T02:45:25.000Z,99307
2019-01-29T02:46:25.000Z,99304
2019-01-29T02:48:25.000Z,99300
2019-01-29T02:49:25.000Z,99305
2019-01-29T02:51:10.000Z,99312
2019-01-29T02:52:10.000Z,99309
2019-01-29T02:53:10.000Z,99303
2019-01-29T02:55:25.000Z,99311
2019-01-29T02:57:25.000Z,99310
2019-01-29T02:59:25.000Z,99310
2019-01-29T03:00:25.000Z,99309
2019-01-29T03:02:25.000Z,99304
2019-01-29T03:03:25.000Z,99307
2019-01-29T03:05:25.000Z,99312
2019-01-29T03:07:10.000Z,99305
2019-01-29T03:08:25.000Z,99306
2019-01-29T03:09:55.000Z,99301
2019-01-29T03:11:25.000Z,99311
2019-01-29T03:13:25.000Z,99309
2019-01-29T03:14:25.000Z,99306
2019-01-29T03:15:25.000Z,99306
2019-01-29T03:17:25.000Z,99313
2019-01-29T03:18:25.000Z,99311
2019-01-29T03:20:25.000Z,99312
2019-01-29T03:21:25.000Z,99313
2019-01-29T03:23:25.000Z,99307
2019-01-29T03:25:25.000Z,99316
2019-01-29T03:26:25.000Z,99310
2019-01-29T03:28:25.000Z,99310
2019-01-29T03:30:25.000Z,99311
2019-01-29T03:32:25.000Z,99313
2019-01-29T03:33:25.000Z,99309
2019-01-29T03:35:25.000Z,99310
2019-01-29T03:37:25.000Z,99305
2019-01-29T03:39:25.000Z,99305
2019-01-29T03:41:25.000Z,99309
2019-01-29T03:42:25.000Z,99308
2019-01-29T03:44:25.000Z,99305
2019-01-29T03:46:25.000Z,99303
2019-01-29T03:47:25.000Z,99307
2019-01-29T03:48:25.000Z,99306
2019-01-29T03:50:10.000Z,99313
2019-01-29T03:51:25.000Z,99310
2019-01-29T03:52:25.000Z,99307
2019-01-29T03:53:25.000Z,99310
2019-01-29T03:55:10.000Z,99307
2019-01-29T03:56:25.000Z,99305
2019-01-29T03:57:25.000Z,99306
2019-01-29T03:58:25.000Z,99315
2019-01-29T04:00:25.000Z,99312
2019-01-29T04:01:25.000Z,99313
2019-01-29T04:03:25.000Z,99313
2019-01-29T04:05:25.000Z,99314
2019-01-29T04:07:25.000Z,99313
2019-01-29T04:09:25.000Z,99316
2019-01-29T04:10:55.000Z,99312
2019-01-29T04:12:25.000Z,99314
2019-01-29T04:14:25.000Z,99320
2019-01-29T04:16:25.000Z,99312
2019-01-29T04:18:25.000Z,99320
2019-01-29T04:19:25.000Z,99318
2019-01-29T04:21:25.000Z,99316
2019-01-29T04:23:25.000Z,99311
2019-01-29T04:24:25.000Z,99309
2019-01-29T04:26:25.000Z,99317
2019-01-29T04:28:25.000Z,99318
2019-01-29T04:30:25.000Z,99320
2019-01-29T04:32:10.000Z,99323
2019-01-29T04:33:25.000Z,99330
2019-01-29T04:35:25.000Z,99327
2019-01-29T04:37:25.000Z,99331
2019-01-29T04:39:25.000Z,99324
2019-01-29T04:40:25.000Z,99327
2019-01-29T04:42:25.000Z,99330
2019-01-29T04:44:25.000Z,99326
2019-01-29T04:46:25.000Z,99334
2019-01-29T04:47:25.000Z,99323
2019-01-29T04:49:25.000Z,99337
2019-01-29T04:50:25.000Z,99338
2019-01-29T04:52:25.000Z,99337
2019-01-29T04:53:25.000Z,99335
2019-01-29T04:55:25.000Z,99340
2019-01-29T04:56:25.000Z,99336
2019-01-29T04:57:25.000Z,99335
2019-01-29T04:59:25.000Z,99335
2019-01-29T05:01:25.000Z,99336
2019-01-29T05:03:25.000Z,99336
2019-01-29T05:05:25.000Z,99336
2019-01-29T05:07:25.000Z,99330
2019-01-29T05:08:25.000Z,99339
2019-01-29T05:10:25.000Z,99328
2019-01-29T05:12:10.000Z,99334
2019-01-29T05:13:25.000Z,99330
2019-01-29T05:14:25.000Z,99331
2019-01-29T05:16:25.000Z,99331
2019-01-29T05:17:25.000Z,99330
2019-01-29T05:18:25.000Z,99334
2019-01-29T05:20:25.000Z,99335
2019-01-29T05:22:25.000Z,99328
2019-01-29T05:24:25.000Z,99331
2019-01-29T05:26:25.000Z,99331
2019-01-29T05:27:25.000Z,99333
2019-01-29T05:29:25.000Z,99334
2019-01-29T05:31:25.000Z,99331
2019-01-29T05:32:26.000Z,99334
2019-01-29T05:34:26.000Z,99332
2019-01-29T05:36:25.000Z,99337
2019-01-29T05:37:26.000Z,99338
2019-01-29T05:39:26.000Z,99334
2019-01-29T05:41:26.000Z,99333
2019-01-29T05:42:26.000Z,99336
2019-01-29T05:43:26.000Z,99340
2019-01-29T05:45:26.000Z,99341
2019-01-29T05:47:26.000Z,99343
2019-01-29T05:49:26.000Z,99346
2019-01-29T05:51:26.000Z,99346
2019-01-29T05:52:26.000Z,99347
2019-01-29T05:54:10.000Z,99343
2019-01-29T05:56:11.000Z,99340
2019-01-29T05:58:26.000Z,99341
2019-01-29T06:00:26.000Z,99334
2019-01-29T06:02:26.000Z,99339
2019-01-29T06:03:26.000Z,99336
2019-01-29T06:05:26.000Z,99338
2019-01-29T06:06:26.000Z,99332
2019-01-29T06:07:26.000Z,99336
2019-01-29T06:09:26.000Z,99335
2019-01-29T06:11:26.000Z,99334
2019-01-29T06:12:26.000Z,99343
2019-01-29T06:14:26.000Z,99338
2019-01-29T06:16:26.000Z,99340
2019-01-29T06:18:26.000Z,99335
2019-01-29T06:20:26.000Z,99338
2019-01-29T06:22:26.000Z,99331
2019-01-29T06:24:26.000Z,99337
2019-01-29T06:26:26.000Z,99332
2019-01-29T06:28:25.000Z,99333
2019-01-29T06:29:26.000Z,99331
2019-01-29T06:31:26.000Z,99335
2019-01-29T06:33:26.000Z,99334
2019-01-29T06:35:10.000Z,99335
2019-01-29T06:36:25.000Z,99330
2019-01-29T06:38:25.000Z,99335
2019-01-29T06:39:25.000Z,99334
2019-01-29T06:41:25.000Z,99342
2019-01-29T06:43:25.000Z,99342
2019-01-29T06:44:26.000Z,99343
2019-01-29T06:46:25.000Z,99337
2019-01-29T06:47:25.000Z,99340
2019-01-29T06:49:10.000Z,99334
2019-01-29T06:50:25.000Z,99337
2019-01-29T06:51:25.000Z,99338
2019-01-29T06:53:10.000Z,99339
2019-01-29T06:54:25.000Z,99334
2019-01-29T06:56:25.000Z,99339
2019-01-29T06:58:10.000Z,99340
2019-01-29T06:59:25.000Z,99335
2019-01-29T07:01:25.000Z,99340
2019-01-29T07:03:25.000Z,99338
2019-01-29T07:05:25.000Z,99354
2019-01-29T07:07:10.000Z,99352
2019-01-29T07:08:25.000Z,99359
2019-01-29T07:10:25.000Z,99360
2019-01-29T07:12:10.000Z,99365
2019-01-29T07:13:25.000Z,99362
2019-01-29T07:14:25.000Z,99365
2019-01-29T07:16:10.000Z,99367
2019-01-29T07:18:10.000Z,99370
2019-01-29T07:19:25.000Z,99375
2019-01-29T07:20:25.000Z,99370
2019-01-29T07:22:25.000Z,99376
2019-01-29T07:23:25.000Z,99380
2019-01-29T07:25:25.000Z,99383
2019-01-29T07:27:10.000Z,99390
2019-01-29T07:28:10.000Z,99369
2019-01-29T07:30:25.000Z,99378
2019-01-29T07:31:25.000Z,99372
2019-01-29T07:32:55.000Z,99379
2019-01-29T07:34:25.000Z,99376
2019-01-29T07:35:25.000Z,99377
2019-01-29T07:37:25.000Z,99378
2019-01-29T07:39:25.000Z,99377
2019-01-29T07:41:26.000Z,99381
2019-01-29T07:42:26.000Z,99368
2019-01-29T07:44:26.000Z,99372
2019-01-29T07:45:26.000Z,99369
2019-01-29T07:47:26.000Z,99380
2019-01-29T07:48:26.000Z,99367
2019-01-29T07:49:26.000Z,99369
2019-01-29T07:51:26.000Z,99367
2019-01-29T07:53:26.000Z,99361
2019-01-29T07:55:26.000Z,99365
2019-01-29T07:56:26.000Z,99368
2019-01-29T07:58:26.000Z,99358
2019-01-29T08:00:10.000Z,99354
2019-01-29T08:01:26.000Z,99353
2019-01-29T08:03:26.000Z,99354
2019-01-29T08:04:26.000Z,99361
2019-01-29T08:06:26.000Z,99351
2019-01-29T08:08:26.000Z,99355
2019-01-29T08:10:26.000Z,99355
2019-01-29T08:12:26.000Z,99350
2019-01-29T08:14:25.000Z,99351
2019-01-29T08:15:26.000Z,99343
2019-01-29T08:17:26.000Z,99346
2019-01-29T08:19:26.000Z,99348
2019-01-29T08:21:26.000Z,99351
2019-01-29T08:23:11.000Z,99348
2019-01-29T08:24:26.000Z,99345
2019-01-29T08:26:25.000Z,99349
2019-01-29T08:27:26.000Z,99347
2019-01-29T08:29:26.000Z,99340
2019-01-29T08:31:26.000Z,99348
2019-01-29T08:32:26.000Z,99342
2019-01-29T08:34:26.000Z,99351
2019-01-29T08:36:10.000Z,99344
2019-01-29T08:37:10.000Z,99342
2019-01-29T08:38:11.000Z,99350
2019-01-29T08:39:26.000Z,99344
2019-01-29T08:40:26.000Z,99347
2019-01-29T08:42:26.000Z,99351
2019-01-29T08:44:25.000Z,99350
2019-01-29T08:46:25.000Z,99342
2019-01-29T08:48:10.000Z,99328
2019-01-29T08:49:11.000Z,99328
2019-01-29T08:51:25.000Z,99336
2019-01-29T08:53:10.000Z,99334
2019-01-29T08:54:26.000Z,99338
2019-01-29T08:56:11.000Z,99331
2019-01-29T08:58:10.000Z,99335
2019-01-29T08:59:25.000Z,99333
2019-01-29T09:00:25.000Z,99333
2019-01-29T09:02:25.000Z,99327
2019-01-29T09:03:25.000Z,99331
2019-01-29T09:05:25.000Z,99327
2019-01-29T09:07:10.000Z,99325
2019-01-29T09:08:10.000Z,99326
2019-01-29T09:10:25.000Z,99329
2019-01-29T09:12:25.000Z,99321
2019-01-29T09:14:10.000Z,99324
2019-01-29T09:15:25.000Z,99321
2019-01-29T09:17:25.000Z,99320
2019-01-29T09:19:25.000Z,99319
2019-01-29T09:20:25.000Z,99315
2019-01-29T09:21:25.000Z,99321
2019-01-29T09:22:25.000Z,99316
2019-01-29T09:24:25.000Z,99319
2019-01-29T09:26:26.000Z,99323
2019-01-29T09:28:25.000Z,99314
2019-01-29T09:30:10.000Z,99314
2019-01-29T09:31:26.000Z,99314
2019-01-29T09:33:10.000Z,99312
2019-01-29T09:34:25.000Z,99307
2019-01-29T09:35:25.000Z,99313
2019-01-29T09:37:25.000Z,99307
2019-01-29T09:39:25.000Z,99311
2019-01-29T09:40:25.000Z,99314
2019-01-29T09:42:25.000Z,99309
2019-01-29T09:43:25.000Z,99311
2019-01-29T09:45:25.000Z,99309
2019-01-29T09:47:10.000Z,99314
2019-01-29T09:48:26.000Z,99315
2019-01-29T09:50:26.000Z,99306
2019-01-29T09:52:26.000Z,99306
2019-01-29T09:54:26.000Z,99306
2019-01-29T09:56:11.000Z,99300
2019-01-29T09:57:26.000Z,99298
2019-01-29T09:59:26.000Z,99305
2019-01-29T10:01:26.000Z,99310
2019-01-29T10:03:26.000Z,99296
2019-01-29T10:05:11.000Z,99306
2019-01-29T10:06:26.000Z,99296
2019-01-29T10:08:26.000Z,99296
2019-01-29T10:10:26.000Z,99299
2019-01-29T10:12:26.000Z,99294
2019-01-29T10:13:26.000Z,99292
2019-01-29T10:15:26.000Z,99294
2019-01-29T10:16:26.000Z,99294
2019-01-29T10:18:26.000Z,99291
2019-01-29T10:19:56.000Z,99293
2019-01-29T10:21:26.000Z,99291
2019-01-29T10:22:26.000Z,99284
2019-01-29T10:24:26.000Z,99287
2019-01-29T10:26:26.000Z,99286
2019-01-29T10:28:26.000Z,99274
2019-01-29T10:30:26.000Z,99273
2019-01-29T10:31:26.000Z,99266
2019-01-29T10:33:26.000Z,99264
2019-01-29T10:35:26.000Z,99261
2019-01-29T10:37:26.000Z,99247
2019-01-29T10:38:56.000Z,99191
2019-01-29T10:40:26.000Z,99249
2019-01-29T10:42:26.000Z,99248
2019-01-29T10:44:26.000Z,99248
2019-01-29T10:46:26.000Z,99241
2019-01-29T10:48:26.000Z,99243
2019-01-29T10:49:26.000Z,99239
2019-01-29T10:51:26.000Z,99233
2019-01-29T10:53:25.000Z,99233
2019-01-29T10:54:55.000Z,99219
2019-01-29T10:56:25.000Z,99222
2019-01-29T10:58:25.000Z,99218
2019-01-29T10:59:25.000Z,99213
2019-01-29T11:01:10.000Z,99214
2019-01-29T11:02:25.000Z,99208
2019-01-29T11:03:25.000Z,99209
2019-01-29T11:04:25.000Z,99209
2019-01-29T11:06:25.000Z,99204
2019-01-29T11:07:25.000Z,99205
2019-01-29T11:09:25.000Z,99203
2019-01-29T11:11:25.000Z,99197
2019-01-29T11:13:25.000Z,99195
2019-01-29T11:14:25.000Z,99199
2019-01-29T11:16:25.000Z,99205
2019-01-29T11:17:25.000Z,99196
2019-01-29T11:18:55.000Z,99203
2019-01-29T11:20:25.000Z,99199
2019-01-29T11:22:25.000Z,99201
2019-01-29T11:23:25.000Z,99208
2019-01-29T11:25:25.000Z,99203
2019-01-29T11:27:25.000Z,99200
2019-01-29T11:28:25.000Z,99204
2019-01-29T11:30:25.000Z,99208
2019-01-29T11:31:25.000Z,99200
2019-01-29T11:32:25.000Z,99198
2019-01-29T11:34:10.000Z,99193
2019-01-29T11:35:25.000Z,99191
2019-01-29T11:37:10.000Z,99188
2019-01-29T11:39:25.000Z,99189
2019-01-29T11:41:25.000Z,99186
2019-01-29T11:43:10.000Z,99186
2019-01-29T11:44:25.000Z,99184
2019-01-29T11:46:25.000Z,99192
2019-01-29T11:47:25.000Z,99183
2019-01-29T11:49:25.000Z,99184
2019-01-29T11:51:25.000Z,99172
2019-01-29T11:53:25.000Z,99175
2019-01-29T11:55:10.000Z,99175
2019-01-29T11:57:26.000Z,99164
2019-01-29T11:58:26.000Z,99176
2019-01-29T12:00:26.000Z,99168
2019-01-29T12:01:26.000Z,99172
2019-01-29T12:03:26.000Z,99175
2019-01-29T12:05:11.000Z,99173
2019-01-29T12:06:11.000Z,99170
2019-01-29T12:07:26.000Z,99169
2019-01-29T12:08:26.000Z,99179
2019-01-29T12:09:56.000Z,99167
2019-01-29T12:11:26.000Z,99179
2019-01-29T12:13:26.000Z,99164
2019-01-29T12:14:55.000Z,99172
2019-01-29T12:16:26.000Z,99174
2019-01-29T12:18:26.000Z,99169
2019-01-29T12:20:26.000Z,99165
2019-01-29T12:21:26.000Z,99167
2019-01-29T12:23:26.000Z,99171
2019-01-29T12:25:11.000Z,99165
2019-01-29T12:26:11.000Z,99172
2019-01-29T12:28:26.000Z,99165
2019-01-29T12:30:26.000Z,99151
2019-01-29T12:32:26.000Z,99140
2019-01-29T12:34:11.000Z,99133
2019-01-29T12:35:26.000Z,99140
2019-01-29T12:37:26.000Z,99119
2019-01-29T12:39:26.000Z,99118
2019-01-29T12:41:26.000Z,99120
2019-01-29T12:43:26.000Z,99115
2019-01-29T12:45:26.000Z,99114
2019-01-29T12:46:26.000Z,99102
2019-01-29T12:48:11.000Z,99106
2019-01-29T12:49:26.000Z,99103
2019-01-29T12:50:26.000Z,99100
2019-01-29T12:52:26.000Z,99093
2019-01-29T12:53:26.000Z,99099
2019-01-29T12:55:26.000Z,99095
2019-01-29T12:57:11.000Z,99088
2019-01-29T12:58:26.000Z,99088
2019-01-29T13:00:11.000Z,99083
2019-01-29T13:01:25.000Z,99081
2019-01-29T13:03:25.000Z,99085
2019-01-29T13:05:25.000Z,99074
2019-01-29T13:06:25.000Z,99071
2019-01-29T13:08:25.000Z,99069
2019-01-29T13:10:10.000Z,99068
2019-01-29T13:11:25.000Z,99067
2019-01-29T13:13:25.000Z,99067
2019-01-29T13:15:25.000Z,99066
2019-01-29T13:17:25.000Z,99058
2019-01-29T13:19:25.000Z,99057
2019-01-29T13:20:25.000Z,99054
2019-01-29T13:21:25.000Z,99055
2019-01-29T13:23:25.000Z,99054
2019-01-29T13:24:25.000Z,99050
2019-01-29T13:26:25.000Z,99050
2019-01-29T13:28:25.000Z,99053
2019-01-29T13:29:25.000Z,99050
2019-01-29T13:31:25.000Z,99040
2019-01-29T13:32:25.000Z,99049
2019-01-29T13:34:25.000Z,99048
2019-01-29T13:36:10.000Z,99041
2019-01-29T13:37:25.000Z,99044
2019-01-29T13:39:10.000Z,99042
2019-01-29T13:40:25.000Z,99046
2019-01-29T13:41:25.000Z,99040
2019-01-29T13:42:25.000Z,99042
2019-01-29T13:44:25.000Z,99037
2019-01-29T13:46:25.000Z,99041
2019-01-29T13:47:25.000Z,99040
2019-01-29T13:49:10.000Z,99044
2019-01-29T13:50:25.000Z,99038
2019-01-29T13:52:25.000Z,99033
2019-01-29T13:53:25.000Z,99033
2019-01-29T13:55:25.000Z,99031
2019-01-29T13:57:25.000Z,99023
2019-01-29T13:59:25.000Z,99015
2019-01-29T14:01:25.000Z,99017
2019-01-29T14:03:25.000Z,99010
2019-01-29T14:04:25.000Z,99012
2019-01-29T14:06:25.000Z,99003
2019-01-29T14:08:25.000Z,99003
2019-01-29T14:09:25.000Z,99002
2019-01-29T14:10:25.000Z,99002
2019-01-29T14:12:10.000Z,98998
2019-01-29T14:14:25.000Z,98996
2019-01-29T14:15:25.000Z,98989
2019-01-29T14:17:25.000Z,98986
2019-01-29T14:18:25.000Z,98983
2019-01-29T14:20:25.000Z,98977
2019-01-29T14:22:25.000Z,98982
2019-01-29T14:24:25.000Z,98972
2019-01-29T14:26:10.000Z,98967
2019-01-29T14:27:25.000Z,98972
2019-01-29T14:29:10.000Z,98969
2019-01-29T14:30:25.000Z,98977
2019-01-29T14:32:25.000Z,98967
2019-01-29T14:34:25.000Z,98961
2019-01-29T14:36:10.000Z,98958
2019-01-29T14:38:25.000Z,98950
2019-01-29T14:39:55.000Z,98952
2019-01-29T14:41:25.000Z,98950
2019-01-29T14:42:25.000Z,98943
2019-01-29T14:44:25.000Z,98942
2019-01-29T14:46:10.000Z,98940
2019-01-29T14:47:25.000Z,98936
2019-01-29T14:49:25.000Z,98940
2019-01-29T14:50:25.000Z,98933
2019-01-29T14:52:25.000Z,98932
2019-01-29T14:53:25.000Z,98934
2019-01-29T14:55:25.000Z,98938
2019-01-29T14:56:55.000Z,98933
2019-01-29T14:58:25.000Z,98938
2019-01-29T14:59:25.000Z,98927
2019-01-29T15:01:10.000Z,98931
2019-01-29T15:02:25.000Z,98930
2019-01-29T15:04:10.000Z,98934
2019-01-29T15:06:10.000Z,98925
2019-01-29T15:07:25.000Z,98929
2019-01-29T15:09:25.000Z,98927
2019-01-29T15:11:26.000Z,98928
2019-01-29T15:13:10.000Z,98922
2019-01-29T15:14:26.000Z,98924
2019-01-29T15:16:26.000Z,98933
2019-01-29T15:17:26.000Z,98916
2019-01-29T15:19:26.000Z,98917
2019-01-29T15:20:26.000Z,98915
2019-01-29T15:21:26.000Z,98915
2019-01-29T15:23:26.000Z,98921
2019-01-29T15:25:26.000Z,98912
2019-01-29T15:27:10.000Z,98908
2019-01-29T15:28:26.000Z,98908
2019-01-29T15:29:26.000Z,98912
2019-01-29T15:31:26.000Z,98904
2019-01-29T15:33:26.000Z,98904
2019-01-29T15:35:26.000Z,98903
2019-01-29T15:36:26.000Z,98900
2019-01-29T15:38:26.000Z,98898
2019-01-29T15:39:26.000Z,98893
2019-01-29T15:41:26.000Z,98893
2019-01-29T15:42:26.000Z,98896
2019-01-29T15:44:10.000Z,98887
2019-01-29T15:45:26.000Z,98883
2019-01-29T15:46:26.000Z,98882
2019-01-29T15:48:26.000Z,98892
2019-01-29T15:50:10.000Z,98889
2019-01-29T15:51:26.000Z,98888
2019-01-29T15:53:26.000Z,98884
2019-01-29T15:54:26.000Z,98887
2019-01-29T15:56:26.000Z,98876
2019-01-29T15:58:10.000Z,98875
2019-01-29T15:59:10.000Z,98881
2019-01-29T16:00:26.000Z,98870
2019-01-29T16:01:26.000Z,98873
2019-01-29T16:03:26.000Z,98873
2019-01-29T16:05:10.000Z,98867
2019-01-29T16:06:26.000Z,98866
2019-01-29T16:08:26.000Z,98865
2019-01-29T16:10:26.000Z,98865
2019-01-29T16:12:26.000Z,98860
2019-01-29T16:14:10.000Z,98866
2019-01-29T16:16:25.000Z,98862
2019-01-29T16:18:25.000Z,98863
2019-01-29T16:20:25.000Z,98861
2019-01-29T16:22:25.000Z,98861
2019-01-29T16:24:10.000Z,98856
2019-01-29T16:25:25.000Z,98855
2019-01-29T16:26:25.000Z,98860
2019-01-29T16:28:25.000Z,98854
2019-01-29T16:30:25.000Z,98854
2019-01-29T16:31:25.000Z,98852
2019-01-29T16:33:25.000Z,98850
2019-01-29T16:34:25.000Z,98852
2019-01-29T16:36:25.000Z,98848
2019-01-29T16:38:25.000Z,98846
2019-01-29T16:39:25.000Z,98845
2019-01-29T16:40:25.000Z,98841
2019-01-29T16:42:25.000Z,98842
2019-01-29T16:44:25.000Z,98836
2019-01-29T16:46:10.000Z,98838
2019-01-29T16:47:25.000Z,98837
2019-01-29T16:48:25.000Z,98837
2019-01-29T16:49:25.000Z,98834
2019-01-29T16:51:25.000Z,98839
2019-01-29T16:52:25.000Z,98835
2019-01-29T16:53:25.000Z,98839
2019-01-29T16:55:25.000Z,98835
2019-01-29T16:57:25.000Z,98836
2019-01-29T16:59:25.000Z,98835
2019-01-29T17:01:25.000Z,98837
2019-01-29T17:03:25.000Z,98830
2019-01-29T17:05:25.000Z,98826
2019-01-29T17:06:25.000Z,98825
2019-01-29T17:08:10.000Z,98824
2019-01-29T17:09:25.000Z,98818
2019-01-29T17:10:25.000Z,98822
2019-01-29T17:11:25.000Z,98814
2019-01-29T17:13:10.000Z,98823
2019-01-29T17:14:25.000Z,98817
2019-01-29T17:15:25.000Z,98816
2019-01-29T17:16:25.000Z,98818
2019-01-29T17:17:25.000Z,98815
2019-01-29T17:19:26.000Z,98815
2019-01-29T17:21:26.000Z,98809
2019-01-29T17:22:26.000Z,98809
2019-01-29T17:24:10.000Z,98808
2019-01-29T17:25:26.000Z,98807
2019-01-29T17:27:26.000Z,98805
2019-01-29T17:28:26.000Z,98805
2019-01-29T17:30:26.000Z,98804
2019-01-29T17:31:56.000Z,98797
2019-01-29T17:33:26.000Z,98804
2019-01-29T17:34:26.000Z,98796
2019-01-29T17:35:26.000Z,98807
2019-01-29T17:37:26.000Z,98793
2019-01-29T17:39:26.000Z,98786
2019-01-29T17:41:26.000Z,98784
2019-01-29T17:42:26.000Z,98784
2019-01-29T17:44:26.000Z,98779
2019-01-29T17:46:26.000Z,98778
2019-01-29T17:47:26.000Z,98780
2019-01-29T17:48:26.000Z,98777
2019-01-29T17:50:10.000Z,98774
2019-01-29T17:51:26.000Z,98777
2019-01-29T17:53:26.000Z,98776
2019-01-29T17:55:26.000Z,98774
2019-01-29T17:56:26.000Z,98774
2019-01-29T17:57:26.000Z,98767
2019-01-29T17:59:26.000Z,98771
2019-01-29T18:00:26.000Z,98768
2019-01-29T18:02:26.000Z,98769
2019-01-29T18:03:26.000Z,98765
2019-01-29T18:05:11.000Z,98765
2019-01-29T18:07:26.000Z,98764
2019-01-29T18:08:26.000Z,98766
2019-01-29T18:09:55.000Z,98760
2019-01-29T18:11:26.000Z,98757
2019-01-29T18:13:26.000Z,98763
2019-01-29T18:15:26.000Z,98757
2019-01-29T18:17:26.000Z,98754
2019-01-29T18:19:26.000Z,98750
2019-01-29T18:21:26.000Z,98747
2019-01-29T18:23:26.000Z,98742
2019-01-29T18:24:26.000Z,98743
2019-01-29T18:26:26.000Z,98738
2019-01-29T18:27:56.000Z,98734
2019-01-29T18:29:26.000Z,98731
2019-01-29T18:30:26.000Z,98730
2019-01-29T18:32:26.000Z,98727
2019-01-29T18:34:11.000Z,98722
2019-01-29T18:35:26.000Z,98719
2019-01-29T18:36:26.000Z,98726
2019-01-29T18:37:26.000Z,98717
2019-01-29T18:39:26.000Z,98717
2019-01-29T18:41:11.000Z,98715
2019-01-29T18:42:26.000Z,98710
2019-01-29T18:44:26.000Z,98709
2019-01-29T18:46:26.000Z,98704
2019-01-29T18:48:26.000Z,98705
2019-01-29T18:50:26.000Z,98709
2019-01-29T18:52:26.000Z,98702
2019-01-29T18:53:26.000Z,98704
2019-01-29T18:55:26.000Z,98704
2019-01-29T18:56:26.000Z,98705
2019-01-29T18:57:26.000Z,98699
2019-01-29T18:59:26.000Z,98699
2019-01-29T19:01:26.000Z,98692
2019-01-29T19:03:26.000Z,98692
2019-01-29T19:04:26.000Z,98689
2019-01-29T19:06:26.000Z,98690
2019-01-29T19:08:26.000Z,98688
2019-01-29T19:09:26.000Z,98689
2019-01-29T19:11:26.000Z,98684
2019-01-29T19:13:26.000Z,98682
2019-01-29T19:14:26.000Z,98680
2019-01-29T19:16:26.000Z,98685
2019-01-29T19:17:26.000Z,98677
2019-01-29T19:19:26.000Z,98677
2019-01-29T19:21:26.000Z,98676
2019-01-29T19:23:26.000Z,98674
2019-01-29T19:24:26.000Z,98674
2019-01-29T19:26:11.000Z,98671
2019-01-29T19:27:25.000Z,98673
2019-01-29T19:29:25.000Z,98674
2019-01-29T19:31:25.000Z,98671
2019-01-29T19:32:25.000Z,98667
2019-01-29T19:34:25.000Z,98670
2019-01-29T19:35:25.000Z,98665
2019-01-29T19:36:25.000Z,98670
2019-01-29T19:37:25.000Z,98665
2019-01-29T19:38:25.000Z,98667
2019-01-29T19:40:25.000Z,98671
2019-01-29T19:41:25.000Z,98660
2019-01-29T19:43:10.000Z,98658
2019-01-29T19:45:10.000Z,98662
2019-01-29T19:46:25.000Z,98659
2019-01-29T19:48:25.000Z,98655
2019-01-29T19:50:25.000Z,98653
2019-01-29T19:52:25.000Z,98651
2019-01-29T19:54:25.000Z,98644
2019-01-29T19:56:25.000Z,98641
2019-01-29T19:58:25.000Z,98640
2019-01-29T20:00:25.000Z,98639
2019-01-29T20:01:25.000Z,98639
2019-01-29T20:02:55.000Z,98632
2019-01-29T20:46:01.000Z,98584
2019-01-29T20:47:47.000Z,98583
2019-01-29T20:49:17.000Z,98577
2019-01-29T20:50:47.000Z,98579
2019-01-29T20:51:47.000Z,98579
2019-01-29T20:52:47.000Z,98579
2019-01-29T20:54:47.000Z,98580
2019-01-29T20:55:47.000Z,98573
2019-01-29T20:57:47.000Z,98568
2019-01-29T20:59:47.000Z,98570
2019-01-29T21:01:32.000Z,98569
2019-01-29T21:02:47.000Z,98569
2019-01-29T21:04:47.000Z,98565
2019-01-29T21:06:47.000Z,98569
2019-01-29T21:07:47.000Z,98564
2019-01-29T21:09:47.000Z,98569
2019-01-29T21:11:47.000Z,98572
2019-01-29T21:13:47.000Z,98567
2019-01-29T21:14:47.000Z,98564
2019-01-29T21:16:32.000Z,98562
2019-01-29T21:17:47.000Z,98561
2019-01-29T21:19:47.000Z,98562
2019-01-29T21:21:47.000Z,98561
2019-01-29T21:23:47.000Z,98553
2019-01-29T21:25:47.000Z,98553
2019-01-29T21:27:32.000Z,98551
2019-01-29T21:28:47.000Z,98552
2019-01-29T21:30:47.000Z,98539
2019-01-29T21:32:48.000Z,98541
2019-01-29T21:34:48.000Z,98541
2019-01-29T21:36:48.000Z,98540
2019-01-29T21:37:48.000Z,98543
2019-01-29T21:38:48.000Z,98538
2019-01-29T21:42:16.000Z,98540
2019-01-29T21:44:01.000Z,98537
2019-01-29T21:45:16.000Z,98537
2019-01-29T21:46:16.000Z,98533
2019-01-29T21:48:16.000Z,98531
2019-01-29T21:49:16.000Z,98531
2019-01-29T21:51:16.000Z,98531
2019-01-29T21:53:01.000Z,98528
2019-01-29T21:54:16.000Z,98525
2019-01-29T21:55:16.000Z,98529
2019-01-29T21:56:16.000Z,98525
2019-01-29T21:58:16.000Z,98517
2019-01-29T21:59:16.000Z,98518
2019-01-29T22:00:16.000Z,98516
2019-01-29T22:02:16.000Z,98516
2019-01-29T22:04:16.000Z,98508
2019-01-29T22:05:16.000Z,98510
2019-01-29T22:06:45.000Z,98504
2019-01-29T22:08:16.000Z,98500
2019-01-29T22:09:16.000Z,98501
2019-01-29T22:11:16.000Z,98497
2019-01-29T22:13:16.000Z,98490
2019-01-29T22:15:16.000Z,98490
2019-01-29T22:17:16.000Z,98487
2019-01-29T22:19:01.000Z,98488
2019-01-29T22:20:01.000Z,98482
2019-01-29T22:21:16.000Z,98482
2019-01-29T22:23:16.000Z,98479
2019-01-29T22:24:16.000Z,98482
2019-01-29T22:26:16.000Z,98477
2019-01-29T22:28:16.000Z,98474
2019-01-29T22:30:01.000Z,98472
2019-01-29T22:31:16.000Z,98476
2019-01-29T22:32:16.000Z,98465
2019-01-29T22:34:16.000Z,98466
2019-01-29T22:36:16.000Z,98470
2019-01-29T22:38:17.000Z,98465
2019-01-29T22:40:17.000Z,98463
2019-01-29T22:42:17.000Z,98461
2019-01-29T22:43:17.000Z,98454
2019-01-29T22:45:17.000Z,98452
2019-01-29T22:47:17.000Z,98445